sensor_id;sensor_type;location;lat;lon;timestamp;P1;durP1;ratioP1;P2;durP2;ratioP2
69053;SDS011;56125;52.242;4.756;2023-02-07T00:00:08;1.73;;;0.77;;
69053;SDS011;56125;52.242;4.756;2023-02-07T00:05:12;0.90;;;0.70;;
69053;SDS011;56125;52.242;4.756;2023-02-07T00:10:14;0.85;;;0.65;;
69053;SDS011;56125;52.242;4.756;2023-02-07T00:15:15;1.00;;;0.70;;
69053;SDS011;56125;52.242;4.756;2023-02-07T00:20:16;1.40;;;1.10;;
69053;SDS011;56125;52.242;4.756;2023-02-07T00:25:17;1.67;;;0.73;;
69053;SDS011;56125;52.242;4.756;2023-02-07T00:30:18;1.77;;;0.80;;
69053;SDS011;56125;52.242;4.756;2023-02-07T00:35:19;1.53;;;0.70;;
69053;SDS011;56125;52.242;4.756;2023-02-07T00:40:20;1.08;;;0.65;;
69053;SDS011;56125;52.242;4.756;2023-02-07T00:45:21;1.53;;;0.80;;
69053;SDS011;56125;52.242;4.756;2023-02-07T00:50:22;1.27;;;0.80;;
69053;SDS011;56125;52.242;4.756;2023-02-07T00:55:23;1.60;;;0.80;;
69053;SDS011;56125;52.242;4.756;2023-02-07T01:00:24;1.15;;;0.82;;
69053;SDS011;56125;52.242;4.756;2023-02-07T01:05:25;2.60;;;0.80;;
69053;SDS011;56125;52.242;4.756;2023-02-07T01:10:26;0.75;;;0.63;;
69053;SDS011;56125;52.242;4.756;2023-02-07T01:15:27;1.30;;;0.77;;
69053;SDS011;56125;52.242;4.756;2023-02-07T01:20:28;2.60;;;0.63;;
69053;SDS011;56125;52.242;4.756;2023-02-07T01:25:30;1.30;;;0.90;;
69053;SDS011;56125;52.242;4.756;2023-02-07T01:30:31;1.52;;;0.82;;
69053;SDS011;56125;52.242;4.756;2023-02-07T01:35:32;2.00;;;0.90;;
69053;SDS011;56125;52.242;4.756;2023-02-07T01:40:35;1.23;;;0.90;;
69053;SDS011;56125;52.242;4.756;2023-02-07T01:45:38;1.53;;;0.77;;
69053;SDS011;56125;52.242;4.756;2023-02-07T01:50:40;1.38;;;0.70;;
69053;SDS011;56125;52.242;4.756;2023-02-07T01:55:45;0.90;;;0.70;;
69053;SDS011;56125;52.242;4.756;2023-02-07T02:00:49;1.10;;;0.70;;
69053;SDS011;56125;52.242;4.756;2023-02-07T02:05:51;1.03;;;0.60;;
69053;SDS011;56125;52.242;4.756;2023-02-07T02:11:00;1.55;;;0.90;;
69053;SDS011;56125;52.242;4.756;2023-02-07T02:27:21;0.97;;;0.70;;
69053;SDS011;56125;52.242;4.756;2023-02-07T02:32:59;2.25;;;0.70;;
69053;SDS011;56125;52.242;4.756;2023-02-07T02:38:34;1.33;;;0.77;;
69053;SDS011;56125;52.242;4.756;2023-02-07T02:43:45;0.88;;;0.80;;
69053;SDS011;56125;52.242;4.756;2023-02-07T02:49:02;1.63;;;0.80;;
69053;SDS011;56125;52.242;4.756;2023-02-07T03:20:50;0.97;;;0.57;;
69053;SDS011;56125;52.242;4.756;2023-02-07T03:26:05;1.10;;;0.70;;
69053;SDS011;56125;52.242;4.756;2023-02-07T03:31:08;1.40;;;0.80;;
69053;SDS011;56125;52.242;4.756;2023-02-07T03:36:19;1.20;;;0.70;;
69053;SDS011;56125;52.242;4.756;2023-02-07T03:41:28;1.23;;;0.60;;
69053;SDS011;56125;52.242;4.756;2023-02-07T03:46:40;1.63;;;0.88;;
69053;SDS011;56125;52.242;4.756;2023-02-07T03:51:44;1.27;;;0.77;;
69053;SDS011;56125;52.242;4.756;2023-02-07T03:56:46;1.10;;;0.77;;
69053;SDS011;56125;52.242;4.756;2023-02-07T04:01:47;2.17;;;0.80;;
69053;SDS011;56125;52.242;4.756;2023-02-07T04:06:49;1.25;;;0.70;;
69053;SDS011;56125;52.242;4.756;2023-02-07T04:11:50;0.90;;;0.70;;
69053;SDS011;56125;52.242;4.756;2023-02-07T04:16:51;1.02;;;0.70;;
69053;SDS011;56125;52.242;4.756;2023-02-07T04:21:52;0.87;;;0.70;;
69053;SDS011;56125;52.242;4.756;2023-02-07T04:26:53;0.80;;;0.70;;
69053;SDS011;56125;52.242;4.756;2023-02-07T04:31:55;2.00;;;0.70;;
69053;SDS011;56125;52.242;4.756;2023-02-07T04:36:56;1.17;;;0.70;;
69053;SDS011;56125;52.242;4.756;2023-02-07T04:41:57;1.50;;;0.90;;
69053;SDS011;56125;52.242;4.756;2023-02-07T04:46:58;0.80;;;0.80;;
69053;SDS011;56125;52.242;4.756;2023-02-07T04:51:59;1.20;;;0.87;;
69053;SDS011;56125;52.242;4.756;2023-02-07T04:57:00;0.80;;;0.70;;
69053;SDS011;56125;52.242;4.756;2023-02-07T05:02:01;0.80;;;0.70;;
69053;SDS011;56125;52.242;4.756;2023-02-07T05:07:02;0.80;;;0.60;;
69053;SDS011;56125;52.242;4.756;2023-02-07T05:12:03;1.37;;;0.77;;
69053;SDS011;56125;52.242;4.756;2023-02-07T05:17:04;0.80;;;0.60;;
69053;SDS011;56125;52.242;4.756;2023-02-07T05:22:05;1.27;;;0.63;;
69053;SDS011;56125;52.242;4.756;2023-02-07T05:27:06;1.17;;;0.70;;
69053;SDS011;56125;52.242;4.756;2023-02-07T05:32:09;0.70;;;0.60;;
69053;SDS011;56125;52.242;4.756;2023-02-07T05:37:37;0.95;;;0.60;;
69053;SDS011;56125;52.242;4.756;2023-02-07T05:42:38;1.10;;;0.70;;
69053;SDS011;56125;52.242;4.756;2023-02-07T05:47:39;1.80;;;0.73;;
69053;SDS011;56125;52.242;4.756;2023-02-07T05:52:40;1.43;;;0.77;;
69053;SDS011;56125;52.242;4.756;2023-02-07T05:57:42;1.52;;;0.68;;
69053;SDS011;56125;52.242;4.756;2023-02-07T06:02:44;1.20;;;0.80;;
69053;SDS011;56125;52.242;4.756;2023-02-07T06:07:45;1.23;;;0.77;;
69053;SDS011;56125;52.242;4.756;2023-02-07T06:12:46;0.80;;;0.70;;
69053;SDS011;56125;52.242;4.756;2023-02-07T06:17:47;1.63;;;0.80;;
69053;SDS011;56125;52.242;4.756;2023-02-07T06:22:48;0.70;;;0.70;;
69053;SDS011;56125;52.242;4.756;2023-02-07T06:27:49;2.00;;;0.85;;
69053;SDS011;56125;52.242;4.756;2023-02-07T06:32:51;4.43;;;0.90;;
69053;SDS011;56125;52.242;4.756;2023-02-07T06:37:52;2.60;;;0.90;;
69053;SDS011;56125;52.242;4.756;2023-02-07T06:42:53;3.30;;;1.37;;
69053;SDS011;56125;52.242;4.756;2023-02-07T06:47:54;2.67;;;0.85;;
69053;SDS011;56125;52.242;4.756;2023-02-07T06:52:55;2.27;;;1.13;;
69053;SDS011;56125;52.242;4.756;2023-02-07T06:58:01;2.28;;;1.30;;
69053;SDS011;56125;52.242;4.756;2023-02-07T07:03:02;2.37;;;1.00;;
69053;SDS011;56125;52.242;4.756;2023-02-07T07:08:03;4.57;;;1.30;;
69053;SDS011;56125;52.242;4.756;2023-02-07T07:13:04;2.23;;;1.13;;
69053;SDS011;56125;52.242;4.756;2023-02-07T07:18:06;1.77;;;1.10;;
69053;SDS011;56125;52.242;4.756;2023-02-07T07:23:07;1.87;;;1.20;;
69053;SDS011;56125;52.242;4.756;2023-02-07T07:28:08;2.33;;;1.08;;
69053;SDS011;56125;52.242;4.756;2023-02-07T07:33:09;2.80;;;1.10;;
69053;SDS011;56125;52.242;4.756;2023-02-07T07:38:10;1.77;;;0.98;;
69053;SDS011;56125;52.242;4.756;2023-02-07T07:43:11;3.57;;;1.03;;
69053;SDS011;56125;52.242;4.756;2023-02-07T07:48:12;2.28;;;1.25;;
69053;SDS011;56125;52.242;4.756;2023-02-07T07:53:13;2.47;;;1.20;;
69053;SDS011;56125;52.242;4.756;2023-02-07T07:58:15;4.30;;;1.20;;
69053;SDS011;56125;52.242;4.756;2023-02-07T08:03:16;2.47;;;1.17;;
69053;SDS011;56125;52.242;4.756;2023-02-07T08:08:18;2.95;;;1.30;;
69053;SDS011;56125;52.242;4.756;2023-02-07T08:13:19;2.40;;;1.17;;
69053;SDS011;56125;52.242;4.756;2023-02-07T08:18:20;3.17;;;1.40;;
69053;SDS011;56125;52.242;4.756;2023-02-07T08:23:22;3.63;;;1.30;;
69053;SDS011;56125;52.242;4.756;2023-02-07T08:28:23;5.47;;;1.52;;
69053;SDS011;56125;52.242;4.756;2023-02-07T08:33:24;2.83;;;1.40;;
69053;SDS011;56125;52.242;4.756;2023-02-07T08:38:25;5.68;;;1.50;;
69053;SDS011;56125;52.242;4.756;2023-02-07T08:43:26;4.40;;;1.50;;
69053;SDS011;56125;52.242;4.756;2023-02-07T08:48:27;4.60;;;2.05;;
69053;SDS011;56125;52.242;4.756;2023-02-07T08:53:29;4.27;;;1.77;;
69053;SDS011;56125;52.242;4.756;2023-02-07T08:58:30;4.95;;;1.90;;
69053;SDS011;56125;52.242;4.756;2023-02-07T09:03:31;3.87;;;2.03;;
69053;SDS011;56125;52.242;4.756;2023-02-07T09:08:32;8.20;;;2.80;;
69053;SDS011;56125;52.242;4.756;2023-02-07T09:13:33;3.63;;;2.30;;
69053;SDS011;56125;52.242;4.756;2023-02-07T09:18:34;6.05;;;2.45;;
69053;SDS011;56125;52.242;4.756;2023-02-07T09:23:35;5.17;;;3.13;;
69053;SDS011;56125;52.242;4.756;2023-02-07T09:28:36;7.93;;;3.00;;
69053;SDS011;56125;52.242;4.756;2023-02-07T09:33:39;6.23;;;3.00;;
69053;SDS011;56125;52.242;4.756;2023-02-07T09:38:40;7.20;;;3.60;;
69053;SDS011;56125;52.242;4.756;2023-02-07T09:49:15;10.35;;;3.45;;
69053;SDS011;56125;52.242;4.756;2023-02-07T09:54:30;6.13;;;3.33;;
69053;SDS011;56125;52.242;4.756;2023-02-07T09:59:47;6.40;;;2.80;;
69053;SDS011;56125;52.242;4.756;2023-02-07T10:04:53;7.50;;;3.40;;
69053;SDS011;56125;52.242;4.756;2023-02-07T10:09:57;6.07;;;3.00;;
69053;SDS011;56125;52.242;4.756;2023-02-07T10:25:51;3.83;;;2.83;;
69053;SDS011;56125;52.242;4.756;2023-02-07T10:30:56;4.78;;;3.03;;
69053;SDS011;56125;52.242;4.756;2023-02-07T10:36:03;5.87;;;3.10;;
69053;SDS011;56125;52.242;4.756;2023-02-07T10:41:16;6.45;;;3.50;;
69053;SDS011;56125;52.242;4.756;2023-02-07T10:46:22;5.63;;;3.13;;
69053;SDS011;56125;52.242;4.756;2023-02-07T10:51:36;4.60;;;3.05;;
69053;SDS011;56125;52.242;4.756;2023-02-07T10:56:43;5.93;;;3.27;;
69053;SDS011;56125;52.242;4.756;2023-02-07T11:01:54;5.22;;;3.08;;
69053;SDS011;56125;52.242;4.756;2023-02-07T11:06:59;6.27;;;2.90;;
69053;SDS011;56125;52.242;4.756;2023-02-07T11:12:12;4.10;;;2.78;;
69053;SDS011;56125;52.242;4.756;2023-02-07T11:17:18;5.60;;;3.27;;
69053;SDS011;56125;52.242;4.756;2023-02-07T11:22:22;5.13;;;3.08;;
69053;SDS011;56125;52.242;4.756;2023-02-07T11:27:24;3.73;;;3.10;;
69053;SDS011;56125;52.242;4.756;2023-02-07T11:32:26;4.45;;;2.92;;
69053;SDS011;56125;52.242;4.756;2023-02-07T11:37:29;4.03;;;3.23;;
69053;SDS011;56125;52.242;4.756;2023-02-07T11:42:31;4.63;;;2.90;;
69053;SDS011;56125;52.242;4.756;2023-02-07T11:47:35;5.77;;;3.23;;
69053;SDS011;56125;52.242;4.756;2023-02-07T11:52:37;5.05;;;3.05;;
69053;SDS011;56125;52.242;4.756;2023-02-07T11:57:41;5.33;;;3.10;;
69053;SDS011;56125;52.242;4.756;2023-02-07T12:03:05;5.72;;;3.80;;
69053;SDS011;56125;52.242;4.756;2023-02-07T12:08:17;6.97;;;3.47;;
69053;SDS011;56125;52.242;4.756;2023-02-07T12:13:26;11.95;;;7.75;;
69053;SDS011;56125;52.242;4.756;2023-02-07T12:18:40;7.83;;;5.80;;
69053;SDS011;56125;52.242;4.756;2023-02-07T12:34:54;6.47;;;5.60;;
69053;SDS011;56125;52.242;4.756;2023-02-07T12:40:01;7.87;;;5.73;;
69053;SDS011;56125;52.242;4.756;2023-02-07T12:45:13;7.65;;;5.97;;
69053;SDS011;56125;52.242;4.756;2023-02-07T12:50:22;6.93;;;5.17;;
69053;SDS011;56125;52.242;4.756;2023-02-07T13:01:17;5.53;;;4.80;;
69053;SDS011;56125;52.242;4.756;2023-02-07T13:06:42;7.20;;;5.28;;
69053;SDS011;56125;52.242;4.756;2023-02-07T13:12:01;5.37;;;4.63;;
69053;SDS011;56125;52.242;4.756;2023-02-07T13:22:46;6.10;;;4.60;;
69053;SDS011;56125;52.242;4.756;2023-02-07T13:27:51;5.82;;;4.43;;
69053;SDS011;56125;52.242;4.756;2023-02-07T13:32:57;4.97;;;4.23;;
69053;SDS011;56125;52.242;4.756;2023-02-07T13:38:08;5.03;;;3.92;;
69053;SDS011;56125;52.242;4.756;2023-02-07T13:54:12;5.90;;;4.20;;
69053;SDS011;56125;52.242;4.756;2023-02-07T13:59:32;5.15;;;4.22;;
69053;SDS011;56125;52.242;4.756;2023-02-07T14:10:25;4.60;;;4.05;;
69053;SDS011;56125;52.242;4.756;2023-02-07T14:20:46;4.38;;;3.67;;
69053;SDS011;56125;52.242;4.756;2023-02-07T14:25:48;4.60;;;3.70;;
69053;SDS011;56125;52.242;4.756;2023-02-07T14:41:15;5.28;;;3.60;;
69053;SDS011;56125;52.242;4.756;2023-02-07T14:46:23;4.00;;;3.40;;
69053;SDS011;56125;52.242;4.756;2023-02-07T14:56:50;3.90;;;3.40;;
69053;SDS011;56125;52.242;4.756;2023-02-07T15:01:52;4.15;;;3.35;;
69053;SDS011;56125;52.242;4.756;2023-02-07T15:06:53;3.63;;;2.97;;
69053;SDS011;56125;52.242;4.756;2023-02-07T15:11:59;3.50;;;3.03;;
69053;SDS011;56125;52.242;4.756;2023-02-07T15:17:06;3.30;;;3.00;;
69053;SDS011;56125;52.242;4.756;2023-02-07T15:22:07;3.78;;;3.38;;
69053;SDS011;56125;52.242;4.756;2023-02-07T15:27:19;4.60;;;3.20;;
69053;SDS011;56125;52.242;4.756;2023-02-07T15:37:29;3.80;;;3.23;;
69053;SDS011;56125;52.242;4.756;2023-02-07T15:42:30;3.15;;;2.85;;
69053;SDS011;56125;52.242;4.756;2023-02-07T15:47:32;3.30;;;2.93;;
69053;SDS011;56125;52.242;4.756;2023-02-07T15:52:39;3.50;;;2.80;;
69053;SDS011;56125;52.242;4.756;2023-02-07T15:57:44;3.40;;;3.10;;
69053;SDS011;56125;52.242;4.756;2023-02-07T16:02:52;2.92;;;2.55;;
69053;SDS011;56125;52.242;4.756;2023-02-07T16:07:59;3.07;;;2.70;;
69053;SDS011;56125;52.242;4.756;2023-02-07T16:13:16;3.50;;;3.10;;
69053;SDS011;56125;52.242;4.756;2023-02-07T16:18:33;2.83;;;2.50;;
69053;SDS011;56125;52.242;4.756;2023-02-07T16:23:52;3.33;;;2.67;;
69053;SDS011;56125;52.242;4.756;2023-02-07T16:28:59;3.00;;;2.30;;
69053;SDS011;56125;52.242;4.756;2023-02-07T16:34:01;2.85;;;2.38;;
69053;SDS011;56125;52.242;4.756;2023-02-07T16:39:03;2.90;;;2.33;;
69053;SDS011;56125;52.242;4.756;2023-02-07T16:44:05;2.50;;;2.10;;
69053;SDS011;56125;52.242;4.756;2023-02-07T16:49:13;2.90;;;2.40;;
69053;SDS011;56125;52.242;4.756;2023-02-07T16:54:16;3.10;;;2.50;;
69053;SDS011;56125;52.242;4.756;2023-02-07T16:59:19;2.70;;;2.30;;
69053;SDS011;56125;52.242;4.756;2023-02-07T17:04:21;2.72;;;2.20;;
69053;SDS011;56125;52.242;4.756;2023-02-07T17:09:23;2.50;;;2.00;;
69053;SDS011;56125;52.242;4.756;2023-02-07T17:14:25;3.50;;;2.50;;
69053;SDS011;56125;52.242;4.756;2023-02-07T17:19:26;2.50;;;2.10;;
69053;SDS011;56125;52.242;4.756;2023-02-07T17:24:27;2.50;;;2.10;;
69053;SDS011;56125;52.242;4.756;2023-02-07T17:29:28;2.30;;;2.10;;
69053;SDS011;56125;52.242;4.756;2023-02-07T17:34:29;2.22;;;1.92;;
69053;SDS011;56125;52.242;4.756;2023-02-07T17:39:30;2.43;;;2.23;;
69053;SDS011;56125;52.242;4.756;2023-02-07T17:44:31;2.55;;;2.15;;
69053;SDS011;56125;52.242;4.756;2023-02-07T17:49:34;2.20;;;2.00;;
69053;SDS011;56125;52.242;4.756;2023-02-07T17:54:35;2.30;;;2.10;;
69053;SDS011;56125;52.242;4.756;2023-02-07T17:59:36;2.73;;;1.83;;
69053;SDS011;56125;52.242;4.756;2023-02-07T18:04:37;2.35;;;1.77;;
69053;SDS011;56125;52.242;4.756;2023-02-07T18:09:38;3.40;;;2.23;;
69053;SDS011;56125;52.242;4.756;2023-02-07T18:14:39;3.35;;;2.40;;
69053;SDS011;56125;52.242;4.756;2023-02-07T18:19:40;2.13;;;1.93;;
69053;SDS011;56125;52.242;4.756;2023-02-07T18:24:41;2.65;;;2.40;;
69053;SDS011;56125;52.242;4.756;2023-02-07T18:29:43;2.93;;;2.20;;
69053;SDS011;56125;52.242;4.756;2023-02-07T18:34:44;4.25;;;2.40;;
69053;SDS011;56125;52.242;4.756;2023-02-07T18:39:46;2.50;;;2.00;;
69053;SDS011;56125;52.242;4.756;2023-02-07T18:44:47;2.65;;;2.10;;
69053;SDS011;56125;52.242;4.756;2023-02-07T18:49:48;5.10;;;2.25;;
69053;SDS011;56125;52.242;4.756;2023-02-07T18:54:49;3.63;;;2.13;;
69053;SDS011;56125;52.242;4.756;2023-02-07T18:59:50;5.50;;;2.40;;
69053;SDS011;56125;52.242;4.756;2023-02-07T19:04:51;3.90;;;2.20;;
69053;SDS011;56125;52.242;4.756;2023-02-07T19:09:52;3.83;;;2.30;;
69053;SDS011;56125;52.242;4.756;2023-02-07T19:14:53;4.67;;;2.40;;
69053;SDS011;56125;52.242;4.756;2023-02-07T19:19:54;3.05;;;2.10;;
69053;SDS011;56125;52.242;4.756;2023-02-07T19:24:55;4.57;;;1.97;;
69053;SDS011;56125;52.242;4.756;2023-02-07T19:29:56;3.85;;;1.80;;
69053;SDS011;56125;52.242;4.756;2023-02-07T19:34:57;6.73;;;1.90;;
69053;SDS011;56125;52.242;4.756;2023-02-07T19:39:58;4.05;;;2.20;;
69053;SDS011;56125;52.242;4.756;2023-02-07T19:44:59;3.20;;;1.90;;
69053;SDS011;56125;52.242;4.756;2023-02-07T19:50:01;3.13;;;1.83;;
69053;SDS011;56125;52.242;4.756;2023-02-07T19:55:02;2.20;;;1.63;;
69053;SDS011;56125;52.242;4.756;2023-02-07T20:00:04;3.13;;;1.60;;
69053;SDS011;56125;52.242;4.756;2023-02-07T20:05:06;4.00;;;1.90;;
69053;SDS011;56125;52.242;4.756;2023-02-07T20:10:07;2.22;;;1.50;;
69053;SDS011;56125;52.242;4.756;2023-02-07T20:15:09;2.30;;;1.90;;
69053;SDS011;56125;52.242;4.756;2023-02-07T20:20:10;2.88;;;1.83;;
69053;SDS011;56125;52.242;4.756;2023-02-07T20:25:11;3.80;;;1.80;;
69053;SDS011;56125;52.242;4.756;2023-02-07T20:30:12;2.78;;;2.00;;
69053;SDS011;56125;52.242;4.756;2023-02-07T20:35:13;2.13;;;1.67;;
69053;SDS011;56125;52.242;4.756;2023-02-07T20:40:15;2.42;;;1.70;;
69053;SDS011;56125;52.242;4.756;2023-02-07T20:45:17;2.17;;;1.93;;
69053;SDS011;56125;52.242;4.756;2023-02-07T20:50:18;2.67;;;2.10;;
69053;SDS011;56125;52.242;4.756;2023-02-07T20:55:19;4.63;;;2.10;;
69053;SDS011;56125;52.242;4.756;2023-02-07T21:00:20;4.18;;;2.50;;
69053;SDS011;56125;52.242;4.756;2023-02-07T21:05:21;4.03;;;2.30;;
69053;SDS011;56125;52.242;4.756;2023-02-07T21:10:22;3.80;;;2.30;;
69053;SDS011;56125;52.242;4.756;2023-02-07T21:15:23;3.63;;;2.33;;
69053;SDS011;56125;52.242;4.756;2023-02-07T21:20:24;4.32;;;2.72;;
69053;SDS011;56125;52.242;4.756;2023-02-07T21:25:26;3.63;;;2.63;;
69053;SDS011;56125;52.242;4.756;2023-02-07T21:30:27;3.22;;;2.22;;
69053;SDS011;56125;52.242;4.756;2023-02-07T21:35:28;4.87;;;2.60;;
69053;SDS011;56125;52.242;4.756;2023-02-07T21:40:29;3.97;;;2.40;;
69053;SDS011;56125;52.242;4.756;2023-02-07T21:45:30;4.33;;;2.70;;
69053;SDS011;56125;52.242;4.756;2023-02-07T21:50:31;4.47;;;2.53;;
69053;SDS011;56125;52.242;4.756;2023-02-07T21:55:32;4.93;;;2.43;;
69053;SDS011;56125;52.242;4.756;2023-02-07T22:00:34;3.78;;;2.65;;
69053;SDS011;56125;52.242;4.756;2023-02-07T22:05:35;3.90;;;2.70;;
69053;SDS011;56125;52.242;4.756;2023-02-07T22:10:36;4.00;;;2.72;;
69053;SDS011;56125;52.242;4.756;2023-02-07T22:15:47;4.77;;;3.00;;
69053;SDS011;56125;52.242;4.756;2023-02-07T22:20:49;4.43;;;2.60;;
69053;SDS011;56125;52.242;4.756;2023-02-07T22:25:50;4.17;;;2.53;;
69053;SDS011;56125;52.242;4.756;2023-02-07T22:30:52;3.60;;;2.40;;
69053;SDS011;56125;52.242;4.756;2023-02-07T22:35:53;4.17;;;2.67;;
69053;SDS011;56125;52.242;4.756;2023-02-07T22:40:54;3.83;;;2.10;;
69053;SDS011;56125;52.242;4.756;2023-02-07T22:45:55;3.60;;;2.63;;
69053;SDS011;56125;52.242;4.756;2023-02-07T22:50:56;3.60;;;2.67;;
69053;SDS011;56125;52.242;4.756;2023-02-07T22:55:59;4.17;;;2.40;;
69053;SDS011;56125;52.242;4.756;2023-02-07T23:01:01;4.57;;;2.45;;
69053;SDS011;56125;52.242;4.756;2023-02-07T23:06:03;4.87;;;3.00;;
69053;SDS011;56125;52.242;4.756;2023-02-07T23:11:06;4.32;;;2.75;;
69053;SDS011;56125;52.242;4.756;2023-02-07T23:16:11;4.47;;;2.90;;
69053;SDS011;56125;52.242;4.756;2023-02-07T23:21:18;4.20;;;2.65;;
69053;SDS011;56125;52.242;4.756;2023-02-07T23:26:21;4.20;;;2.90;;
69053;SDS011;56125;52.242;4.756;2023-02-07T23:31:23;4.45;;;2.60;;
69053;SDS011;56125;52.242;4.756;2023-02-07T23:36:24;3.77;;;2.70;;
69053;SDS011;56125;52.242;4.756;2023-02-07T23:41:26;3.17;;;2.40;;
69053;SDS011;56125;52.242;4.756;2023-02-07T23:46:28;4.60;;;3.07;;
69053;SDS011;56125;52.242;4.756;2023-02-07T23:51:30;3.25;;;2.65;;
69053;SDS011;56125;52.242;4.756;2023-02-07T23:56:31;4.70;;;2.97;;
